CPX654 Details

Departure: The Florida Keys Marathon International Airport (KMTH)
Arrival: Key West International Airport (KEYW)
Route: JANKA


Current Weather Information
KMTH 232153Z AUTO 07015G22KT 10SM CLR 31/19 A3004 RMK AO2 SLP172 T03110194
KEYW 232153Z 09016G22KT 10SM CLR 29/22 A3004 RMK AO2 PK WND 10026/2134 SLP171 T02890222